createdAt,value
2023-05-05T00:00:10.126Z,33.21
2023-05-05T00:01:10.176Z,32.95
2023-05-05T00:02:10.170Z,28.72
2023-05-05T00:03:10.249Z,30.04
2023-05-05T00:04:10.156Z,25.52
2023-05-05T00:05:10.170Z,29.63
2023-05-05T00:06:10.269Z,28.18
2023-05-05T00:07:10.202Z,29.80
2023-05-05T00:08:10.573Z,30.81
2023-05-05T00:09:10.243Z,32.77
2023-05-05T00:10:10.335Z,33.07
2023-05-05T00:11:10.265Z,31.64
2023-05-05T00:12:10.242Z,36.95
2023-05-05T00:13:10.416Z,30.93
2023-05-05T00:14:10.221Z,30.24
2023-05-05T00:15:10.224Z,33.38
2023-05-05T00:16:10.256Z,32.42
2023-05-05T00:17:10.324Z,27.35
2023-05-05T00:18:10.254Z,27.42
2023-05-05T00:19:10.216Z,40.29
2023-05-05T00:20:10.402Z,32.59
2023-05-05T00:21:10.198Z,28.84
2023-05-05T00:22:10.229Z,27.55
2023-05-05T00:23:10.187Z,30.82
2023-05-05T00:24:10.194Z,30.05
2023-05-05T00:25:10.193Z,30.30
2023-05-05T00:26:10.180Z,32.65
2023-05-05T00:27:10.163Z,34.59
2023-05-05T00:28:10.180Z,32.21
2023-05-05T00:29:10.154Z,28.79
2023-05-05T00:30:10.251Z,37.09
2023-05-05T00:31:10.204Z,27.38
2023-05-05T00:32:10.141Z,28.74
2023-05-05T00:33:10.161Z,29.60
2023-05-05T00:34:10.151Z,32.98
2023-05-05T00:35:10.171Z,33.68
2023-05-05T00:36:10.126Z,37.47
2023-05-05T00:37:10.170Z,33.72
2023-05-05T00:38:10.115Z,37.79
2023-05-05T00:39:10.127Z,36.71
2023-05-05T00:40:10.263Z,30.98
2023-05-05T00:41:10.117Z,29.89
2023-05-05T00:42:10.130Z,34.17
2023-05-05T00:43:10.122Z,37.58
2023-05-05T00:44:10.151Z,27.20
2023-05-05T00:45:10.118Z,32.51
2023-05-05T00:46:10.132Z,35.02
2023-05-05T00:47:10.097Z,35.58
2023-05-05T00:48:10.161Z,25.15
2023-05-05T00:49:10.188Z,25.12
2023-05-05T00:50:10.119Z,31.35
2023-05-05T00:51:10.065Z,34.26
2023-05-05T00:52:10.073Z,32.17
2023-05-05T00:53:10.079Z,41.13
2023-05-05T00:54:10.060Z,29.32
2023-05-05T00:55:10.104Z,33.12
2023-05-05T00:56:10.092Z,27.46
2023-05-05T00:57:10.140Z,30.60
2023-05-05T00:58:10.111Z,27.92
2023-05-05T00:59:10.073Z,33.05
2023-05-05T01:00:10.300Z,35.56
2023-05-05T01:01:10.135Z,30.23
2023-05-05T01:02:10.112Z,29.00
2023-05-05T01:03:10.230Z,32.07
2023-05-05T01:04:10.065Z,31.16
2023-05-05T01:05:10.103Z,32.86
2023-05-05T01:06:10.096Z,27.12
2023-05-05T01:07:10.108Z,33.28
2023-05-05T01:08:10.094Z,30.75
2023-05-05T01:09:10.041Z,29.71
2023-05-05T01:10:19.756Z,27.56
2023-05-05T01:11:11.024Z,27.92
2023-05-05T01:12:10.073Z,28.99
2023-05-05T01:13:10.150Z,29.53
2023-05-05T01:14:10.010Z,29.24
2023-05-05T01:15:10.040Z,34.46
2023-05-05T01:16:10.048Z,39.63
2023-05-05T01:17:10.036Z,28.70
2023-05-05T01:18:09.983Z,33.22
2023-05-05T01:19:10.013Z,27.25
2023-05-05T01:20:10.165Z,34.90
2023-05-05T01:21:10.009Z,34.49
2023-05-05T01:22:09.958Z,33.50
2023-05-05T01:23:09.951Z,25.59
2023-05-05T01:24:09.967Z,31.70
2023-05-05T01:25:09.941Z,26.69
2023-05-05T01:26:09.940Z,31.69
2023-05-05T01:27:09.951Z,32.13
2023-05-05T01:28:09.918Z,30.06
2023-05-05T01:29:09.948Z,29.83
2023-05-05T01:30:10.043Z,29.62
2023-05-05T01:31:09.972Z,32.05
2023-05-05T01:32:09.907Z,38.14
2023-05-05T01:33:09.901Z,32.92
2023-05-05T01:34:09.892Z,30.41
2023-05-05T01:35:09.869Z,32.63
2023-05-05T01:36:09.865Z,29.36
2023-05-05T01:37:09.870Z,29.49
2023-05-05T01:38:09.859Z,34.66
2023-05-05T01:39:09.828Z,31.76
2023-05-05T01:40:09.970Z,30.54
2023-05-05T01:41:09.869Z,34.84
2023-05-05T01:42:09.828Z,37.72
2023-05-05T01:43:09.834Z,35.62
2023-05-05T01:44:09.806Z,27.37
2023-05-05T01:45:09.823Z,28.78
2023-05-05T01:46:09.863Z,30.24
2023-05-05T01:47:09.807Z,30.74
2023-05-05T01:48:09.778Z,37.59
2023-05-05T01:49:09.821Z,35.13
2023-05-05T01:50:09.916Z,32.08
2023-05-05T01:51:09.776Z,34.04
2023-05-05T01:52:09.748Z,32.92
2023-05-05T01:53:09.767Z,32.13
2023-05-05T01:54:09.758Z,29.06
2023-05-05T01:55:09.749Z,34.89
2023-05-05T01:56:09.723Z,37.47
2023-05-05T01:57:09.756Z,35.44
2023-05-05T01:58:09.729Z,35.01
2023-05-05T01:59:09.708Z,33.64
2023-05-05T02:00:09.906Z,28.54
2023-05-05T02:01:09.733Z,30.64
2023-05-05T02:02:09.713Z,31.83
2023-05-05T02:03:09.903Z,37.61
2023-05-05T02:04:09.673Z,27.80
2023-05-05T02:05:09.678Z,31.20
2023-05-05T02:06:09.660Z,33.36
2023-05-05T02:07:09.649Z,30.94
2023-05-05T02:08:09.658Z,29.31
2023-05-05T02:09:09.642Z,31.63
2023-05-05T02:10:09.849Z,38.72
2023-05-05T02:11:09.669Z,36.26
2023-05-05T02:12:09.631Z,30.07
2023-05-05T02:13:09.741Z,36.46
2023-05-05T02:14:09.644Z,29.91
2023-05-05T02:15:09.620Z,40.03
2023-05-05T02:16:09.629Z,32.51
2023-05-05T02:17:09.578Z,29.49
2023-05-05T02:18:09.580Z,30.08
2023-05-05T02:19:09.554Z,38.23
2023-05-05T02:20:09.735Z,34.23
2023-05-05T02:21:09.563Z,31.95
2023-05-05T02:22:09.559Z,38.35
2023-05-05T02:23:09.565Z,31.97
2023-05-05T02:24:09.531Z,31.29
2023-05-05T02:25:09.529Z,27.81
2023-05-05T02:26:09.512Z,28.86
2023-05-05T02:27:09.514Z,32.65
2023-05-05T02:28:09.532Z,32.79
2023-05-05T02:29:09.599Z,26.74
2023-05-05T02:30:09.644Z,27.22
2023-05-05T02:31:09.562Z,31.53
2023-05-05T02:32:09.519Z,33.93
2023-05-05T02:33:09.541Z,33.63
2023-05-05T02:34:09.458Z,31.18
2023-05-05T02:35:09.476Z,31.58
2023-05-05T02:36:09.470Z,30.57
2023-05-05T02:37:09.468Z,29.74
2023-05-05T02:38:09.446Z,37.86
2023-05-05T02:39:09.445Z,31.88
2023-05-05T02:40:09.592Z,40.24
2023-05-05T02:41:09.417Z,27.24
2023-05-05T02:42:09.420Z,32.99
2023-05-05T02:43:09.445Z,34.19
2023-05-05T02:44:09.408Z,28.70
2023-05-05T02:45:09.400Z,30.64
2023-05-05T02:46:09.490Z,26.97
2023-05-05T02:47:09.388Z,34.91
2023-05-05T02:48:09.445Z,37.37
2023-05-05T02:49:09.375Z,39.90
2023-05-05T02:50:09.699Z,31.39
2023-05-05T02:51:09.411Z,30.93
2023-05-05T02:52:09.364Z,24.97
2023-05-05T02:53:09.413Z,30.07
2023-05-05T02:54:09.391Z,35.89
2023-05-05T02:55:09.390Z,33.35
2023-05-05T02:56:09.427Z,34.12
2023-05-05T02:57:09.382Z,32.82
2023-05-05T02:58:09.405Z,31.82
2023-05-05T02:59:09.354Z,28.57
2023-05-05T03:00:09.578Z,36.24
2023-05-05T03:01:09.425Z,35.49
2023-05-05T03:02:09.340Z,27.17
2023-05-05T03:03:09.448Z,36.11
2023-05-05T03:04:09.349Z,39.85
2023-05-05T03:05:09.387Z,35.73
2023-05-05T03:06:09.332Z,30.45
2023-05-05T03:07:09.406Z,29.68
2023-05-05T03:08:09.374Z,35.28
2023-05-05T03:09:09.400Z,29.18
2023-05-05T03:10:09.794Z,27.62
2023-05-05T03:11:09.371Z,30.05
2023-05-05T03:12:09.344Z,31.99
2023-05-05T03:13:09.445Z,27.65
2023-05-05T03:14:09.382Z,32.05
2023-05-05T03:15:09.348Z,34.89
2023-05-05T03:16:09.391Z,32.29
2023-05-05T03:17:09.337Z,34.92
2023-05-05T03:18:09.349Z,27.53
2023-05-05T03:19:09.353Z,34.65
2023-05-05T03:20:09.414Z,34.43
2023-05-05T03:21:09.304Z,36.70
2023-05-05T03:22:09.313Z,28.95
2023-05-05T03:23:09.351Z,31.58
2023-05-05T03:24:09.312Z,26.27
2023-05-05T03:25:09.327Z,34.93
2023-05-05T03:26:09.310Z,34.25
2023-05-05T03:27:09.313Z,34.93
2023-05-05T03:28:09.323Z,31.88
2023-05-05T03:29:09.299Z,29.70
2023-05-05T03:30:09.585Z,35.89
2023-05-05T03:31:09.336Z,34.57
2023-05-05T03:32:09.371Z,38.30
2023-05-05T03:33:09.378Z,35.40
2023-05-05T03:34:09.348Z,29.20
2023-05-05T03:35:09.291Z,39.15
2023-05-05T03:36:09.326Z,33.98
2023-05-05T03:37:09.303Z,31.27
2023-05-05T03:38:09.303Z,34.71
2023-05-05T03:39:09.284Z,31.76
2023-05-05T03:40:09.481Z,33.60
2023-05-05T03:41:09.315Z,37.19
2023-05-05T03:42:09.283Z,40.02
2023-05-05T03:43:09.301Z,32.34
2023-05-05T03:44:09.296Z,33.73
2023-05-05T03:45:09.314Z,31.47
2023-05-05T03:46:09.321Z,34.96
2023-05-05T03:47:09.283Z,31.43
2023-05-05T03:48:09.384Z,35.38
2023-05-05T03:49:09.308Z,32.20
2023-05-05T03:50:09.433Z,30.55
2023-05-05T03:51:09.306Z,39.21
2023-05-05T03:52:09.276Z,29.11
2023-05-05T03:53:09.288Z,30.96
2023-05-05T03:54:09.252Z,25.39
2023-05-05T03:55:09.281Z,37.63
2023-05-05T03:56:09.287Z,34.42
2023-05-05T03:57:09.256Z,31.03
2023-05-05T03:58:09.278Z,25.00
2023-05-05T03:59:09.247Z,35.07
2023-05-05T04:00:09.334Z,29.84
2023-05-05T04:01:09.282Z,31.61
2023-05-05T04:02:09.343Z,26.73
2023-05-05T04:03:09.428Z,28.76
2023-05-05T04:04:09.271Z,31.71
2023-05-05T04:05:09.265Z,28.19
2023-05-05T04:06:09.281Z,34.62
2023-05-05T04:07:09.274Z,37.90
2023-05-05T04:08:09.248Z,31.87
2023-05-05T04:09:09.235Z,31.90
2023-05-05T04:10:09.389Z,32.72
2023-05-05T04:11:09.232Z,32.66
2023-05-05T04:12:09.237Z,30.21
2023-05-05T04:13:09.394Z,31.93
2023-05-05T04:14:09.227Z,30.18
2023-05-05T04:15:09.239Z,33.68
2023-05-05T04:16:09.250Z,25.00
2023-05-05T04:17:09.238Z,31.58
2023-05-05T04:18:09.308Z,33.54
2023-05-05T04:19:09.216Z,35.25
2023-05-05T04:20:09.471Z,32.08
2023-05-05T04:21:09.213Z,37.42
2023-05-05T04:22:09.248Z,34.83
2023-05-05T04:23:09.242Z,36.77
2023-05-05T04:24:09.217Z,28.60
2023-05-05T04:25:09.225Z,28.88
2023-05-05T04:26:09.218Z,32.08
2023-05-05T04:27:09.236Z,34.49
2023-05-05T04:28:09.282Z,33.82
2023-05-05T04:29:09.219Z,36.52
2023-05-05T04:30:09.428Z,34.93
2023-05-05T04:31:09.264Z,34.63
2023-05-05T04:32:09.270Z,32.41
2023-05-05T04:33:09.279Z,29.93
2023-05-05T04:34:09.248Z,39.10
2023-05-05T04:35:09.255Z,31.42
2023-05-05T04:36:09.299Z,32.85
2023-05-05T04:37:09.247Z,29.09
2023-05-05T04:38:09.260Z,36.74
2023-05-05T04:39:09.253Z,28.20
2023-05-05T04:40:09.511Z,27.45
2023-05-05T04:41:09.282Z,32.93
2023-05-05T04:42:09.235Z,28.10
2023-05-05T04:43:09.252Z,34.33
2023-05-05T04:44:09.239Z,36.21
2023-05-05T04:45:09.232Z,34.86
2023-05-05T04:46:09.261Z,34.19
2023-05-05T04:47:09.234Z,34.65
2023-05-05T04:48:09.256Z,29.01
2023-05-05T04:49:09.323Z,35.54
2023-05-05T04:50:09.380Z,32.30
2023-05-05T04:51:09.239Z,32.87
2023-05-05T04:52:09.225Z,33.67
2023-05-05T04:53:09.204Z,33.22
2023-05-05T04:54:09.247Z,28.72
2023-05-05T04:55:09.227Z,29.15
2023-05-05T04:56:09.239Z,31.42
2023-05-05T04:57:09.219Z,27.00
2023-05-05T04:58:09.243Z,29.47
2023-05-05T04:59:09.255Z,28.29
2023-05-05T05:00:09.414Z,28.16
2023-05-05T05:01:09.220Z,26.75
2023-05-05T05:02:09.317Z,31.21
2023-05-05T05:03:09.260Z,26.90
2023-05-05T05:04:09.219Z,31.91
2023-05-05T05:05:09.226Z,33.03
2023-05-05T05:06:09.233Z,34.67
2023-05-05T05:07:09.255Z,28.45
2023-05-05T05:08:09.260Z,26.72
2023-05-05T05:09:09.305Z,31.46
2023-05-05T05:10:09.460Z,33.66
2023-05-05T05:11:09.255Z,39.66
2023-05-05T05:12:09.210Z,36.08
2023-05-05T05:13:11.250Z,37.05
2023-05-05T05:14:09.207Z,33.29
2023-05-05T05:15:09.207Z,29.41
2023-05-05T05:16:09.221Z,35.64
2023-05-05T05:17:09.206Z,30.65
2023-05-05T05:18:09.235Z,29.77
2023-05-05T05:19:09.176Z,33.05
2023-05-05T05:20:09.685Z,34.62
2023-05-05T05:21:09.167Z,40.99
2023-05-05T05:22:09.166Z,30.80
2023-05-05T05:23:09.144Z,26.33
2023-05-05T05:24:09.159Z,33.64
2023-05-05T05:25:09.183Z,33.07
2023-05-05T05:26:09.118Z,33.66
2023-05-05T05:27:10.104Z,29.55
2023-05-05T05:28:10.633Z,33.40
2023-05-05T05:29:09.088Z,34.91
2023-05-05T05:30:09.290Z,34.97
2023-05-05T05:31:09.204Z,38.07
2023-05-05T05:32:09.267Z,36.39
2023-05-05T05:33:09.121Z,35.67
2023-05-05T05:34:10.762Z,34.23
2023-05-05T05:35:09.055Z,34.26
2023-05-05T05:36:09.486Z,30.10
2023-05-05T05:37:09.031Z,32.37
2023-05-05T05:38:09.011Z,32.55
2023-05-05T05:39:09.016Z,33.13
2023-05-05T05:40:09.178Z,36.91
2023-05-05T05:41:09.023Z,38.78
2023-05-05T05:42:08.992Z,42.92
2023-05-05T05:43:09.092Z,50.63
2023-05-05T05:44:09.420Z,58.31
2023-05-05T05:45:08.987Z,61.01
2023-05-05T05:46:09.582Z,67.89
2023-05-05T05:47:08.967Z,86.75
2023-05-05T05:48:08.995Z,99.11
2023-05-05T05:49:08.945Z,98.21
2023-05-05T05:50:09.069Z,96.15
2023-05-05T05:51:08.930Z,92.95
2023-05-05T05:52:08.915Z,99.53
2023-05-05T05:53:08.931Z,97.76
2023-05-05T05:54:09.006Z,105.50
2023-05-05T05:55:08.912Z,113.57
2023-05-05T05:56:08.946Z,117.55
2023-05-05T05:57:08.911Z,155.55
2023-05-05T05:58:08.868Z,157.97
2023-05-05T05:59:08.884Z,157.73
2023-05-05T06:00:09.118Z,156.76
2023-05-05T06:01:08.863Z,160.82
2023-05-05T06:02:08.897Z,163.85
2023-05-05T06:03:08.995Z,171.72
2023-05-05T06:04:08.907Z,181.40
2023-05-05T06:05:08.858Z,203.46
2023-05-05T06:06:08.866Z,214.00
2023-05-05T06:07:08.862Z,218.48
2023-05-05T06:08:08.838Z,220.31
2023-05-05T06:09:08.825Z,216.07
2023-05-05T06:10:25.956Z,223.39
2023-05-05T06:11:09.780Z,223.69
2023-05-05T06:12:08.784Z,223.95
2023-05-05T06:13:08.887Z,223.82
2023-05-05T06:14:08.797Z,217.89
2023-05-05T06:15:08.769Z,202.22
2023-05-05T06:16:08.765Z,194.59
2023-05-05T06:17:08.763Z,183.65
2023-05-05T06:18:08.861Z,179.28
2023-05-05T06:19:08.737Z,163.28
2023-05-05T06:20:08.923Z,156.26
2023-05-05T06:21:08.741Z,142.04
2023-05-05T06:22:08.713Z,141.78
2023-05-05T06:23:08.713Z,138.71
2023-05-05T06:24:08.727Z,131.32
2023-05-05T06:25:08.695Z,122.13
2023-05-05T06:26:08.674Z,118.36
2023-05-05T06:27:08.682Z,116.11
2023-05-05T06:28:08.702Z,108.52
2023-05-05T06:29:11.021Z,104.86
2023-05-05T06:30:08.905Z,104.36
2023-05-05T06:31:08.711Z,97.65
2023-05-05T06:32:08.627Z,91.83
2023-05-05T06:33:08.679Z,91.50
2023-05-05T06:34:08.618Z,89.63
2023-05-05T06:35:08.613Z,80.13
2023-05-05T06:36:08.681Z,59.15
2023-05-05T06:37:08.766Z,41.51
2023-05-05T06:38:08.595Z,35.00
2023-05-05T06:39:08.901Z,38.04
2023-05-05T06:40:08.778Z,27.47
2023-05-05T06:41:08.588Z,24.66
2023-05-05T06:42:08.570Z,25.00
2023-05-05T06:43:08.572Z,25.00
2023-05-05T06:44:08.560Z,25.00
2023-05-05T06:45:08.572Z,25.00
2023-05-05T06:46:08.558Z,25.00
2023-05-05T06:47:09.001Z,24.53
2023-05-05T06:48:08.632Z,27.95
2023-05-05T06:49:08.534Z,25.00
2023-05-05T06:50:08.815Z,25.00
2023-05-05T06:51:08.518Z,27.85
2023-05-05T06:52:08.528Z,25.00
2023-05-05T06:53:08.507Z,26.79
2023-05-05T06:54:08.463Z,28.03
2023-05-05T06:55:08.523Z,28.14
2023-05-05T06:56:08.463Z,33.64
2023-05-05T06:57:08.481Z,29.57
2023-05-05T06:58:08.473Z,29.21
2023-05-05T06:59:08.891Z,31.79
2023-05-05T07:00:08.676Z,25.00
2023-05-05T07:01:08.534Z,27.02
2023-05-05T07:02:08.433Z,26.15
2023-05-05T07:03:08.501Z,25.12
2023-05-05T07:04:08.856Z,27.90
2023-05-05T07:05:08.416Z,25.00
2023-05-05T07:06:08.395Z,27.32
2023-05-05T07:07:08.389Z,28.72
2023-05-05T07:08:08.396Z,31.56
2023-05-05T07:09:08.400Z,26.55
2023-05-05T07:10:08.535Z,30.11
2023-05-05T07:11:08.494Z,28.19
2023-05-05T07:12:08.502Z,25.00
2023-05-05T07:13:08.549Z,29.81
2023-05-05T07:14:08.654Z,29.34
2023-05-05T07:15:23.529Z,35.52
2023-05-05T07:16:09.653Z,18.11
2023-05-05T07:17:08.551Z,4.44
2023-05-05T07:18:08.656Z,0.00
2023-05-05T07:19:08.535Z,0.00
2023-05-05T07:20:09.023Z,0.00
2023-05-05T07:21:08.537Z,6.31
2023-05-05T07:22:08.504Z,27.90
2023-05-05T07:23:08.496Z,25.00
2023-05-05T07:24:08.562Z,26.75
2023-05-05T07:25:08.609Z,23.55
2023-05-05T07:26:08.616Z,25.00
2023-05-05T07:27:08.628Z,25.00
2023-05-05T07:28:08.668Z,25.00
2023-05-05T07:29:08.953Z,30.35
2023-05-05T07:30:13.121Z,31.80
2023-05-05T07:31:09.749Z,32.51
2023-05-05T07:32:08.775Z,36.41
2023-05-05T07:33:08.902Z,43.30
2023-05-05T07:34:08.911Z,66.27
2023-05-05T07:35:08.823Z,110.44
2023-05-05T07:36:08.769Z,121.36
2023-05-05T07:37:08.711Z,129.23
2023-05-05T07:38:09.480Z,147.79
2023-05-05T07:39:08.676Z,130.83
2023-05-05T07:40:09.040Z,141.77
2023-05-05T07:41:08.787Z,138.57
2023-05-05T07:42:08.849Z,149.40
2023-05-05T07:43:08.772Z,158.10
2023-05-05T07:44:08.791Z,166.65
2023-05-05T07:45:08.805Z,181.71
2023-05-05T07:46:08.871Z,189.77
2023-05-05T07:47:08.846Z,191.42
2023-05-05T07:48:08.883Z,193.46
2023-05-05T07:49:08.923Z,199.68
2023-05-05T07:50:09.066Z,201.44
2023-05-05T07:51:08.836Z,203.54
2023-05-05T07:52:08.912Z,211.11
2023-05-05T07:53:14.417Z,214.91
2023-05-05T07:54:09.925Z,215.18
2023-05-05T07:55:08.808Z,214.35
2023-05-05T07:56:08.898Z,205.90
2023-05-05T07:57:08.872Z,209.22
2023-05-05T07:58:08.842Z,208.47
2023-05-05T07:59:08.804Z,219.71
2023-05-05T08:00:09.001Z,209.45
2023-05-05T08:01:08.796Z,225.00
2023-05-05T08:02:08.873Z,246.10
2023-05-05T08:03:11.631Z,249.75
2023-05-05T08:04:09.063Z,249.51
2023-05-05T08:05:09.256Z,249.98
2023-05-05T08:06:08.741Z,249.42
2023-05-05T08:07:08.727Z,250.94
2023-05-05T08:08:08.823Z,250.00
2023-05-05T08:09:08.784Z,249.45
2023-05-05T08:10:08.714Z,250.00
2023-05-05T08:11:08.706Z,250.00
2023-05-05T08:12:08.759Z,249.02
2023-05-05T08:13:08.873Z,250.00
2023-05-05T08:14:08.683Z,250.00
2023-05-05T08:15:09.203Z,249.10
2023-05-05T08:16:08.722Z,248.33
2023-05-05T08:17:08.689Z,249.83
2023-05-05T08:18:08.671Z,249.41
2023-05-05T08:19:21.147Z,249.82
2023-05-05T08:20:09.662Z,250.13
2023-05-05T08:21:08.734Z,252.17
2023-05-05T08:22:08.689Z,258.11
2023-05-05T08:23:08.785Z,267.46
2023-05-05T08:24:09.041Z,279.85
2023-05-05T08:25:08.803Z,265.50
2023-05-05T08:26:08.682Z,249.92
2023-05-05T08:27:08.649Z,249.80
2023-05-05T08:28:08.581Z,249.96
2023-05-05T08:29:08.677Z,248.54
2023-05-05T08:30:08.628Z,249.17
2023-05-05T08:31:08.645Z,248.80
2023-05-05T08:32:08.567Z,249.99
2023-05-05T08:33:08.603Z,249.82
2023-05-05T08:34:08.561Z,248.94
2023-05-05T08:35:08.844Z,249.50
2023-05-05T08:36:08.600Z,248.77
2023-05-05T08:37:08.660Z,247.12
2023-05-05T08:38:08.750Z,249.37
2023-05-05T08:39:08.762Z,246.93
2023-05-05T08:40:08.895Z,244.56
2023-05-05T08:41:08.875Z,244.79
2023-05-05T08:42:08.964Z,243.35
2023-05-05T08:43:09.063Z,242.13
2023-05-05T08:44:09.466Z,238.82
2023-05-05T08:45:09.667Z,237.75
2023-05-05T08:46:09.962Z,238.95
2023-05-05T08:47:09.326Z,234.14
2023-05-05T08:48:09.296Z,240.28
2023-05-05T08:49:09.310Z,242.72
2023-05-05T08:50:09.342Z,241.26
2023-05-05T08:51:09.415Z,241.07
2023-05-05T08:52:09.443Z,240.06
2023-05-05T08:53:09.522Z,235.57
2023-05-05T08:54:09.530Z,234.41
2023-05-05T08:55:09.730Z,232.79
2023-05-05T08:56:09.680Z,229.48
2023-05-05T08:57:09.638Z,225.19
2023-05-05T08:58:09.683Z,219.60
2023-05-05T08:59:09.767Z,217.92
2023-05-05T09:00:09.790Z,215.84
2023-05-05T09:01:09.933Z,217.57
2023-05-05T09:02:09.954Z,216.39
2023-05-05T09:03:10.029Z,212.55
2023-05-05T09:04:09.880Z,212.61
2023-05-05T09:05:10.174Z,209.50
2023-05-05T09:06:10.021Z,208.86
2023-05-05T09:07:10.009Z,208.98
2023-05-05T09:08:10.025Z,205.64
2023-05-05T09:09:10.050Z,205.34
2023-05-05T09:10:10.097Z,210.13
2023-05-05T09:11:10.084Z,208.96
2023-05-05T09:12:10.219Z,207.06
2023-05-05T09:13:10.185Z,213.60
2023-05-05T09:14:10.145Z,213.43
2023-05-05T09:15:10.384Z,204.44
2023-05-05T09:16:10.159Z,207.47
2023-05-05T09:17:10.222Z,204.27
2023-05-05T09:18:10.222Z,204.39
2023-05-05T09:19:10.194Z,206.46
2023-05-05T09:20:10.180Z,208.49
2023-05-05T09:21:10.191Z,211.93
2023-05-05T09:22:10.241Z,214.03
2023-05-05T09:23:10.209Z,216.21
2023-05-05T09:24:10.432Z,214.59
2023-05-05T09:25:10.350Z,213.96
2023-05-05T09:26:10.240Z,215.36
2023-05-05T09:27:10.236Z,213.10
2023-05-05T09:28:10.409Z,210.38
2023-05-05T09:29:10.237Z,205.09
2023-05-05T09:30:10.244Z,208.49
2023-05-05T09:31:10.253Z,210.49
2023-05-05T09:32:10.262Z,211.58
2023-05-05T09:33:10.289Z,200.58
2023-05-05T09:34:10.524Z,195.24
2023-05-05T09:35:10.303Z,171.42
2023-05-05T09:36:10.225Z,136.66
2023-05-05T09:37:10.222Z,137.72
2023-05-05T09:38:10.234Z,133.32
2023-05-05T09:39:10.257Z,132.38
2023-05-05T09:40:11.021Z,127.86
2023-05-05T09:41:10.257Z,124.63
2023-05-05T09:42:10.306Z,117.92
2023-05-05T09:43:10.327Z,119.72
2023-05-05T09:44:11.506Z,111.14
2023-05-05T09:45:10.480Z,106.05
2023-05-05T09:46:10.465Z,104.74
2023-05-05T09:47:26.015Z,110.53
2023-05-05T09:48:11.546Z,110.61
2023-05-05T09:49:10.453Z,105.33
2023-05-05T09:50:10.575Z,108.91
2023-05-05T09:51:10.430Z,105.09
2023-05-05T09:52:10.496Z,100.76
2023-05-05T09:53:10.449Z,100.95
2023-05-05T09:54:10.419Z,94.33
2023-05-05T09:55:10.418Z,98.16
2023-05-05T09:56:10.479Z,97.10
2023-05-05T09:57:10.402Z,94.05
2023-05-05T09:58:10.490Z,80.89
2023-05-05T09:59:10.516Z,84.30
2023-05-05T10:00:10.686Z,81.62
2023-05-05T10:01:10.594Z,80.65
2023-05-05T10:02:10.577Z,82.19
2023-05-05T10:03:10.745Z,81.26
2023-05-05T10:04:10.681Z,80.81
2023-05-05T10:05:10.897Z,77.16
2023-05-05T10:06:10.770Z,73.02
2023-05-05T10:07:10.878Z,68.08
2023-05-05T10:08:10.897Z,66.91
2023-05-05T10:09:10.995Z,67.45
2023-05-05T10:10:11.240Z,72.95
2023-05-05T10:11:11.116Z,67.24
2023-05-05T10:12:11.162Z,67.18
2023-05-05T10:13:11.354Z,64.59
2023-05-05T10:14:11.319Z,63.55
2023-05-05T10:15:11.426Z,58.32
2023-05-05T10:16:11.473Z,53.28
2023-05-05T10:17:11.496Z,47.73
2023-05-05T10:18:11.605Z,42.91
2023-05-05T10:19:11.613Z,29.66
2023-05-05T10:20:11.882Z,34.73
2023-05-05T10:21:11.714Z,35.60
2023-05-05T10:22:11.755Z,46.40
2023-05-05T10:23:11.822Z,41.90
2023-05-05T10:24:11.895Z,39.36
2023-05-05T10:25:11.921Z,36.03
2023-05-05T10:26:11.946Z,36.89
2023-05-05T10:27:12.772Z,34.76
2023-05-05T10:28:12.468Z,16.66
2023-05-05T10:29:11.992Z,36.09
2023-05-05T10:30:12.043Z,54.30
2023-05-05T10:31:24.224Z,68.73
2023-05-05T10:32:40.670Z,69.09
2023-05-05T10:33:30.202Z,69.52
2023-05-05T10:34:13.155Z,69.87
2023-05-05T10:35:12.120Z,74.97
2023-05-05T10:36:12.139Z,83.80
2023-05-05T10:37:12.113Z,102.20
2023-05-05T10:38:12.115Z,124.84
2023-05-05T10:39:12.086Z,139.87
2023-05-05T10:40:12.032Z,144.50
2023-05-05T10:41:12.155Z,152.04
2023-05-05T10:42:12.036Z,159.62
2023-05-05T10:43:12.473Z,160.14
2023-05-05T10:44:12.055Z,164.67
2023-05-05T10:45:12.554Z,173.80
2023-05-05T10:46:12.039Z,176.28
2023-05-05T10:47:12.087Z,179.26
2023-05-05T10:48:12.240Z,181.97
2023-05-05T10:49:13.187Z,185.96
2023-05-05T10:50:12.476Z,196.81
2023-05-05T10:51:11.970Z,213.58
2023-05-05T10:52:11.951Z,214.75
2023-05-05T10:53:11.991Z,215.17
2023-05-05T10:54:12.026Z,215.01
2023-05-05T10:55:11.973Z,216.22
2023-05-05T10:56:11.910Z,217.57
2023-05-05T10:57:11.938Z,218.57
2023-05-05T10:58:11.909Z,218.82
2023-05-05T10:59:11.952Z,215.69
2023-05-05T11:00:13.460Z,217.31
2023-05-05T11:01:12.167Z,223.53
2023-05-05T11:02:12.152Z,242.92
2023-05-05T11:03:12.232Z,248.91
2023-05-05T11:04:12.303Z,240.72
2023-05-05T11:05:12.230Z,142.90
2023-05-05T11:06:12.176Z,65.56
2023-05-05T11:07:14.989Z,0.00
2023-05-05T11:08:12.142Z,0.31
2023-05-05T11:09:12.129Z,9.97
2023-05-05T11:10:12.358Z,12.69
2023-05-05T11:11:12.136Z,27.82
2023-05-05T11:12:12.336Z,37.32
2023-05-05T11:13:12.125Z,10.72
2023-05-05T11:14:12.125Z,0.53
2023-05-05T11:15:12.084Z,37.78
2023-05-05T11:16:12.135Z,73.41
2023-05-05T11:17:12.063Z,84.83
2023-05-05T11:18:12.123Z,102.19
2023-05-05T11:19:12.141Z,92.98
2023-05-05T11:20:12.119Z,101.83
2023-05-05T11:21:12.082Z,99.83
2023-05-05T11:22:12.025Z,97.51
2023-05-05T11:23:13.434Z,99.85
2023-05-05T11:24:12.023Z,100.22
2023-05-05T11:25:12.035Z,101.21
2023-05-05T11:26:12.022Z,103.09
2023-05-05T11:27:12.000Z,111.47
2023-05-05T11:28:12.197Z,119.10
2023-05-05T11:29:11.982Z,123.22
2023-05-05T11:30:12.179Z,131.98
2023-05-05T11:31:12.053Z,144.68
2023-05-05T11:32:11.964Z,145.97
2023-05-05T11:33:11.984Z,150.60
2023-05-05T11:34:11.961Z,158.27
2023-05-05T11:35:11.955Z,159.52
2023-05-05T11:36:12.135Z,164.12
2023-05-05T11:37:11.984Z,165.73
2023-05-05T11:38:11.978Z,169.94
2023-05-05T11:39:11.938Z,169.62
2023-05-05T11:40:12.009Z,172.20
2023-05-05T11:41:11.946Z,177.90
2023-05-05T11:42:11.905Z,178.75
2023-05-05T11:43:11.918Z,176.08
2023-05-05T11:44:11.889Z,179.27
2023-05-05T11:45:11.890Z,184.26
2023-05-05T11:46:11.891Z,184.96
2023-05-05T11:47:11.873Z,185.89
2023-05-05T11:48:11.954Z,188.64
2023-05-05T11:49:11.862Z,191.13
2023-05-05T11:50:11.897Z,190.97
2023-05-05T11:51:11.946Z,193.54
2023-05-05T11:52:11.897Z,193.66
2023-05-05T11:53:11.851Z,195.35
2023-05-05T11:54:11.830Z,196.62
2023-05-05T11:55:11.823Z,197.21
2023-05-05T11:56:11.809Z,198.54
2023-05-05T11:57:11.835Z,197.93
2023-05-05T11:58:11.831Z,199.13
2023-05-05T11:59:11.782Z,199.57
2023-05-05T12:00:11.912Z,200.40
2023-05-05T12:01:11.791Z,200.26
2023-05-05T12:02:11.756Z,202.37
2023-05-05T12:03:12.098Z,203.23
2023-05-05T12:04:11.863Z,202.60
2023-05-05T12:05:11.752Z,202.79
2023-05-05T12:06:11.727Z,203.36
2023-05-05T12:07:11.761Z,203.69
2023-05-05T12:08:11.994Z,204.28
2023-05-05T12:09:11.741Z,205.72
2023-05-05T12:10:11.760Z,205.16
2023-05-05T12:11:11.754Z,205.67
2023-05-05T12:12:11.701Z,207.39
2023-05-05T12:13:11.811Z,206.82
2023-05-05T12:14:11.807Z,207.25
2023-05-05T12:15:11.857Z,206.77
2023-05-05T12:16:11.936Z,207.74
2023-05-05T12:17:11.962Z,208.32
2023-05-05T12:18:12.054Z,208.45
2023-05-05T12:19:12.044Z,207.57
2023-05-05T12:20:12.419Z,208.00
2023-05-05T12:21:12.194Z,207.74
2023-05-05T12:22:12.193Z,209.41
2023-05-05T12:23:12.280Z,210.51
2023-05-05T12:24:12.316Z,210.05
2023-05-05T12:25:12.403Z,210.19
2023-05-05T12:26:12.414Z,210.48
2023-05-05T12:27:12.477Z,210.36
2023-05-05T12:28:12.553Z,211.45
2023-05-05T12:29:12.669Z,211.10
2023-05-05T12:30:12.707Z,211.05
2023-05-05T12:31:12.787Z,210.91
2023-05-05T12:32:12.861Z,211.31
2023-05-05T12:33:12.911Z,211.93
2023-05-05T12:34:12.937Z,211.83
2023-05-05T12:35:12.964Z,211.71
2023-05-05T12:36:13.012Z,211.18
2023-05-05T12:37:13.125Z,211.58
2023-05-05T12:38:13.201Z,212.11
2023-05-05T12:39:13.224Z,211.94
2023-05-05T12:40:13.349Z,213.95
2023-05-05T12:41:13.377Z,212.54
2023-05-05T12:42:13.388Z,211.67
2023-05-05T12:43:13.502Z,212.61